Tuesday, January 23, 2018, 11:56 PM GMT
Back to Local

CYOW, Ottawa Int'L. Ont.

Location: , , Canada Lat: 45.317
Local Time: 11:56 PM GMT (23:56 GMT) Lon: -75.667
Time Zone: GMT Elev: 380 ft

Show me the last for .
Show Coded

Time T Td Feel RH Dir Speed Gust Alt SLP Vis Weather Sky Remarks
2018-01-23 23:35 36 36 29 100 200° 8 - 29.43 29.44 3 -RA BR OVC034 None
2018-01-23 23:17 34 34 29 100 180° 6 - 29.43 29.44 3 BR SCT036 OVC050 None
2018-01-23 23:09 34 32 30 93 170° 5 - 29.42 29.44 1 BR OVC051 None
2018-01-23 23:00 34 32 31 93 170° 3 - 29.42 29.44 0 BR OVC047 None
2018-01-23 22:00 32 32 27 100 160° 5 - 29.42 29.44 0 FG VV002 None
2018-01-23 21:00 32 32 25 100 100° 8 - 29.41 29.43 0 FG VV002 None
2018-01-23 20:32 32 32 26 100 90° 7 - 29.42 29.44 0 FG VV002 None
2018-01-23 20:00 32 32 26 100 80° 6 - 29.42 29.44 0 -RA BR OVC002 None
2018-01-23 19:00 32 32 27 100 50° 5 - 29.43 29.45 2 -RA BR OVC004 None
2018-01-23 18:33 32 32 27 100 90° 5 - 29.45 29.47 2 -RA BR OVC005 None
2018-01-23 18:00 32 32 27 100 110° 5 - 29.47 29.49 2 BR OVC003 None
2018-01-23 17:00 32 30 27 92 110° 5 - 29.49 29.51 2 BR OVC004 None
2018-01-23 16:00 30 30 23 100 100° 7 - 29.52 29.54 3 BR OVC003 Pressure rising rapidly
2018-01-23 15:00 30 28 21 92 90° 10 - 29.52 29.54 4 BR OVC004 None
2018-01-23 14:52 30 28 22 92 90° 9 - 29.52 29.54 4 BR OVC003 None
2018-01-23 14:00 28 28 16 100 70° 13 18 29.54 29.56 15 -FZRA OVC005 None
2018-01-23 13:00 28 27 18 92 80° 13 - 29.58 29.60 8 -FZRA OVC004 None
2018-01-23 12:00 27 27 23 100 40° 3 - 29.63 29.65 8 -FZRA OVC004 Pressure rising rapidly
2018-01-23 11:00 27 25 13 92 60° 14 21 29.61 29.63 6 -FZRA OVC004 Pressure falling rapidly
2018-01-23 10:00 25 23 10 92 70° 15 22 29.65 29.67 10 -FZRA BKN005 OVC022 Pressure falling rapidly
2018-01-23 09:00 25 23 13 92 70° 13 - 29.71 29.74 8 -FZRA OVC005 None
2018-01-23 08:00 25 23 11 92 70° 17 - 29.75 29.77 6 -FZRA OVC005 None
2018-01-23 07:00 25 23 9 92 70° 15 24 29.77 29.80 8 -FZRA OVC005 None
2018-01-23 06:25 25 23 10 92 70° 15 22 29.79 29.81 6 -FZRA OVC006 None
2018-01-23 06:00 25 23 10 92 80° 13 22 29.80 29.83 6 -SN OVC005 None
2018-01-23 05:00 23 21 8 92 80° 14 21 29.84 29.87 5 -SN OVC008 Pressure falling rapidly
2018-01-23 04:35 23 19 8 85 80° 13 20 29.87 29.90 3 -SN OVC010 None
2018-01-23 04:00 21 19 6 92 80° 10 21 29.89 29.92 4 -FZRA OVC008 None
2018-01-23 03:42 21 19 6 92 80° 13 20 29.90 29.93 5 -FZRA OVC008 None
2018-01-23 03:00 21 19 7 92 80° 16 - 29.92 29.95 10 OVC009 None
2018-01-23 02:00 21 18 5 85 70° 16 23 29.96 29.99 8 -SN OVC010 None
2018-01-23 01:46 19 18 1 92 70° 15 26 29.96 29.99 5 -SN DRSN OVC011 None
2018-01-23 01:00 19 16 2 85 70° 17 24 29.99 30.01 3 -PL DRSN OVC025 Pressure falling rapidly
2018-01-23 00:00 19 16 0 85 70° 24 32 30.04 30.06 4 -PL DRSN OVC022 None

Support USWX by starting your Amazon purchase here.